Time;durP1;ratioP1;P1;durP2;ratioP2;P2;SDS_P1;SDS_P2;PMS_P1;PMS_P2;Temp;Humidity;BMP_temperature;BMP_pressure;BME280_temperature;BME280_humidity;BME280_pressure;Samples;Min_cycle;Max_cycle;Signal;HPM_P1;HPM_P2
2024/02/23 00:05:54;;;;;;;3.53;2.42;;;0.90;99.90;;;;;;20502048;28;20175;-45
2024/02/23 00:15:56;;;;;;;5.57;2.65;;;0.90;99.90;;;;;;20498232;28;20176;-45
2024/02/23 00:26:05;;;;;;;2.83;1.70;;;0.80;99.90;;;;;;20517558;28;21090;-47
2024/02/23 00:36:08;;;;;;;2.80;1.80;;;0.90;99.90;;;;;;20517717;28;20060;-51
2024/02/23 00:46:10;;;;;;;2.60;1.20;;;0.80;99.90;;;;;;20505780;28;20140;-45
2024/02/23 00:56:12;;;;;;;1.52;0.73;;;0.80;99.90;;;;;;20523938;28;20176;-47
2024/02/23 01:06:14;;;;;;;2.75;0.77;;;0.80;99.90;;;;;;20520021;28;20477;-48
2024/02/23 01:16:16;;;;;;;3.00;1.63;;;0.80;99.90;;;;;;20518237;28;20394;-48
2024/02/23 01:26:18;;;;;;;2.83;1.60;;;0.90;99.90;;;;;;20520752;28;20251;-48
2024/02/23 01:36:20;;;;;;;2.17;1.45;;;0.90;99.90;;;;;;20523251;28;21488;-53
2024/02/23 01:46:22;;;;;;;3.78;1.58;;;0.80;99.90;;;;;;20520978;28;20077;-55
2024/02/23 01:56:24;;;;;;;1.52;0.90;;;0.80;99.90;;;;;;20532194;28;20167;-57
2024/02/23 02:06:25;;;;;;;1.80;1.05;;;0.80;99.90;;;;;;20535830;28;20072;-52
2024/02/23 02:16:27;;;;;;;1.25;0.85;;;0.90;99.90;;;;;;20539344;28;20136;-50
2024/02/23 02:26:30;;;;;;;1.58;0.95;;;0.90;99.90;;;;;;20533020;28;20510;-51
2024/02/23 02:36:32;;;;;;;2.75;1.60;;;1.00;99.90;;;;;;20535816;28;20171;-50
2024/02/23 02:46:34;;;;;;;3.25;1.95;;;1.10;99.90;;;;;;20535859;28;21154;-46
2024/02/23 02:56:35;;;;;;;3.65;1.65;;;1.20;99.90;;;;;;20531585;28;20168;-46
2024/02/23 03:06:37;;;;;;;1.30;0.77;;;1.20;99.90;;;;;;20531840;28;20069;-48
2024/02/23 03:16:39;;;;;;;3.40;1.30;;;1.00;99.90;;;;;;20529671;28;20188;-47
2024/02/23 03:26:41;;;;;;;2.90;1.60;;;1.10;99.90;;;;;;20531724;28;20315;-47
2024/02/23 03:36:43;;;;;;;3.63;2.30;;;1.30;99.90;;;;;;20530246;28;21216;-48
2024/02/23 03:46:45;;;;;;;2.78;1.50;;;1.20;99.90;;;;;;20529828;28;20069;-48
2024/02/23 03:56:49;;;;;;;2.28;1.30;;;1.10;99.90;;;;;;20526875;28;20161;-43
2024/02/23 04:06:51;;;;;;;3.85;2.53;;;1.10;99.90;;;;;;20525145;28;20172;-43
2024/02/23 04:16:53;;;;;;;7.38;4.65;;;1.40;99.90;;;;;;20528678;28;20081;-43
2024/02/23 04:26:57;;;;;;;10.60;6.10;;;1.60;99.90;;;;;;20527723;28;20516;-43
2024/02/23 04:36:59;;;;;;;11.23;5.28;;;1.60;99.90;;;;;;20524567;28;20168;-42
2024/02/23 04:47:01;;;;;;;6.57;4.88;;;1.60;99.90;;;;;;20525581;28;20179;-43
2024/02/23 04:57:03;;;;;;;5.28;3.22;;;1.90;99.90;;;;;;20526656;28;20180;-43
2024/02/23 05:07:05;;;;;;;4.05;2.22;;;1.70;99.90;;;;;;20523983;28;21299;-43
2024/02/23 05:17:07;;;;;;;4.25;2.38;;;1.80;99.90;;;;;;20523674;28;20126;-42
2024/02/23 05:27:08;;;;;;;6.10;1.90;;;1.80;99.90;;;;;;20515763;28;20510;-43
2024/02/23 05:37:10;;;;;;;6.47;3.10;;;1.50;99.90;;;;;;20517554;28;20178;-43
2024/02/23 05:47:13;;;;;;;7.55;3.80;;;1.50;99.90;;;;;;20519845;28;20220;-43
2024/02/23 05:57:15;;;;;;;6.05;2.72;;;1.50;99.90;;;;;;20499273;28;20172;-42
2024/02/23 06:07:26;;;;;;;621.75;38.50;;;1.60;99.90;;;;;;20514893;28;20576;-43
2024/02/23 06:17:28;;;;;;;14.75;5.75;;;1.80;99.90;;;;;;20495136;28;20049;-42
2024/02/23 06:27:30;;;;;;;954.28;55.17;;;2.00;99.90;;;;;;20498210;28;20302;-44
2024/02/23 06:37:33;;;;;;;11.63;7.57;;;2.40;99.90;;;;;;20479437;28;20652;-43
2024/02/23 06:47:34;;;;;;;22.23;7.10;;;2.60;99.90;;;;;;20351738;28;20568;-41
2024/02/23 06:57:39;;;;;;;671.25;36.72;;;2.60;99.90;;;;;;20344565;28;20132;-42
2024/02/23 07:07:41;;;;;;;341.73;17.20;;;2.60;99.90;;;;;;20345298;28;21914;-44
2024/02/23 07:17:44;;;;;;;594.70;26.58;;;2.60;99.90;;;;;;20422360;28;20193;-42
2024/02/23 07:27:48;;;;;;;581.17;26.45;;;2.80;99.90;;;;;;20441950;28;20475;-42
2024/02/23 07:37:55;;;;;;;435.90;21.33;;;2.80;99.90;;;;;;20440794;28;21313;-45
2024/02/23 07:47:57;;;;;;;423.75;16.88;;;2.70;99.90;;;;;;20469257;28;20204;-42
2024/02/23 07:58:01;;;;;;;4.60;1.75;;;2.90;99.90;;;;;;20518505;28;20136;-42
2024/02/23 08:08:03;;;;;;;688.10;25.50;;;2.80;99.90;;;;;;20522044;28;20132;-43
2024/02/23 08:18:05;;;;;;;500.33;15.82;;;2.90;99.90;;;;;;20518207;28;20136;-44
2024/02/23 08:28:07;;;;;;;478.00;17.58;;;2.80;99.90;;;;;;20518220;28;20510;-42
2024/02/23 08:38:09;;;;;;;146.55;16.17;;;3.00;99.90;;;;;;20486185;28;20706;-43
2024/02/23 08:48:14;;;;;;;345.65;15.68;;;3.00;99.90;;;;;;20515651;28;20144;-43
2024/02/23 08:58:16;;;;;;;468.75;19.92;;;3.00;99.90;;;;;;20510988;28;20191;-45
2024/02/23 09:08:18;;;;;;;159.40;6.80;;;3.20;99.90;;;;;;20258598;28;20055;-43
2024/02/23 09:18:20;;;;;;;126.13;5.22;;;3.40;99.90;;;;;;20262849;28;21026;-47
2024/02/23 09:28:22;;;;;;;314.17;12.20;;;3.30;99.90;;;;;;20262272;28;21391;-43
2024/02/23 09:38:25;;;;;;;223.38;7.93;;;3.50;99.90;;;;;;20442379;28;20184;-44
2024/02/23 09:48:28;;;;;;;550.28;24.45;;;3.60;99.90;;;;;;20513256;28;20076;-46
2024/02/23 09:58:32;;;;;;;140.15;5.38;;;3.60;99.90;;;;;;20515689;28;20558;-42
2024/02/23 10:08:34;;;;;;;421.70;15.73;;;3.50;99.90;;;;;;20515374;28;20530;-43
2024/02/23 10:18:40;;;;;;;325.67;15.00;;;3.40;99.90;;;;;;20527862;28;20140;-42
2024/02/23 10:28:42;;;;;;;16.42;1.05;;;3.40;99.90;;;;;;20527503;28;20125;-52
2024/02/23 10:38:49;;;;;;;403.42;15.15;;;3.40;99.90;;;;;;20525379;28;20870;-43
2024/02/23 10:48:52;;;;;;;124.03;3.92;;;3.40;99.90;;;;;;20525452;28;21229;-41
2024/02/23 10:58:55;;;;;;;94.50;5.95;;;3.40;99.90;;;;;;20526084;28;21747;-42
2024/02/23 11:09:08;;;;;;;238.57;9.70;;;3.40;99.90;;;;;;20524334;28;20154;-42
2024/02/23 11:19:11;;;;;;;635.80;19.30;;;3.50;99.90;;;;;;20524058;28;20188;-43
2024/02/23 11:29:14;;;;;;;46.55;1.27;;;3.50;99.90;;;;;;20524408;28;20771;-43
2024/02/23 11:39:17;;;;;;;109.47;3.05;;;3.40;99.90;;;;;;20523537;28;20152;-45
2024/02/23 11:49:19;;;;;;;427.15;13.75;;;3.40;99.90;;;;;;20525902;28;20482;-44
2024/02/23 11:59:25;;;;;;;433.33;13.65;;;3.40;99.90;;;;;;20344754;28;20597;-43
2024/02/23 12:09:26;;;;;;;290.52;11.15;;;3.70;99.90;;;;;;20351242;28;20187;-42
2024/02/23 12:19:29;;;;;;;263.77;10.55;;;4.00;99.90;;;;;;20350386;28;20125;-42
2024/02/23 12:29:31;;;;;;;475.98;17.35;;;3.70;99.90;;;;;;20369917;28;20137;-42
2024/02/23 12:39:33;;;;;;;397.50;16.38;;;3.70;99.90;;;;;;20499971;28;20247;-42
2024/02/23 12:49:35;;;;;;;411.42;19.77;;;3.70;99.90;;;;;;20520782;28;20080;-42
2024/02/23 12:59:36;;;;;;;1219.60;41.58;;;3.60;99.90;;;;;;20520212;28;21690;-43
2024/02/23 13:09:41;;;;;;;685.88;21.42;;;3.60;99.90;;;;;;20515399;28;20168;-42
2024/02/23 13:19:46;;;;;;;265.70;8.50;;;3.70;99.90;;;;;;20500640;28;20180;-44
2024/02/23 13:29:48;;;;;;;50.35;2.03;;;3.60;99.90;;;;;;20522070;28;20065;-42
2024/02/23 13:39:49;;;;;;;403.95;17.38;;;3.60;99.90;;;;;;20512715;28;20155;-45
2024/02/23 13:49:51;;;;;;;711.88;24.85;;;3.40;99.90;;;;;;20523591;28;20285;-43
2024/02/23 13:59:56;;;;;;;293.90;11.10;;;3.40;99.90;;;;;;20534190;28;20069;-42
2024/02/23 14:10:02;;;;;;;86.25;3.72;;;3.30;99.90;;;;;;20532311;28;20433;-43
2024/02/23 14:20:06;;;;;;;55.20;3.60;;;3.00;99.90;;;;;;20528863;28;20156;-42
2024/02/23 14:30:08;;;;;;;68.95;2.45;;;2.90;99.90;;;;;;20527217;28;21259;-41
2024/02/23 14:40:11;;;;;;;113.60;3.83;;;2.80;99.90;;;;;;20526564;28;20120;-41
2024/02/23 14:50:13;;;;;;;214.48;7.75;;;2.90;99.90;;;;;;20525849;28;20155;-42
2024/02/23 15:00:16;;;;;;;260.27;9.13;;;3.00;99.90;;;;;;20521903;28;20180;-42
2024/02/23 15:10:20;;;;;;;683.53;23.13;;;3.00;99.90;;;;;;20525716;28;20247;-44
2024/02/23 15:20:23;;;;;;;49.70;3.40;;;3.10;99.90;;;;;;20506028;28;20059;-42
2024/02/23 15:30:25;;;;;;;571.65;17.70;;;3.10;99.90;;;;;;20530004;28;20065;-42
2024/02/23 15:40:27;;;;;;;284.13;9.52;;;3.10;99.90;;;;;;20525068;28;20107;-43
2024/02/23 15:50:30;;;;;;;40.85;3.22;;;3.40;99.90;;;;;;20527365;28;20231;-43
2024/02/23 16:00:33;;;;;;;3.25;2.05;;;3.40;99.90;;;;;;20522030;28;20112;-41
2024/02/23 16:10:35;;;;;;;328.83;10.77;;;3.30;99.90;;;;;;20521046;28;20218;-44
2024/02/23 16:20:37;;;;;;;25.70;4.07;;;3.20;99.90;;;;;;20523895;28;20717;-41
2024/02/23 16:30:39;;;;;;;3.75;2.58;;;3.10;99.90;;;;;;20524207;28;20120;-41
2024/02/23 16:40:49;;;;;;;839.33;29.37;;;2.80;99.90;;;;;;20956621;27;20306;-41
2024/02/23 16:50:51;;;;;;;631.13;25.17;;;2.80;99.90;;;;;;20992979;27;20166;-40
2024/02/23 17:00:55;;;;;;;90.43;7.25;;;2.70;99.90;;;;;;20976975;27;20154;-41
2024/02/23 17:10:57;;;;;;;856.30;33.03;;;2.80;99.90;;;;;;20972309;27;20874;-41
2024/02/23 17:21:02;;;;;;;578.63;25.48;;;2.80;99.90;;;;;;20986312;27;21304;-41
2024/02/23 17:31:04;;;;;;;423.60;24.10;;;2.80;99.90;;;;;;20986667;27;20240;-40
2024/02/23 17:41:06;;;;;;;687.53;28.13;;;2.70;99.90;;;;;;21007779;27;21527;-41
2024/02/23 17:51:11;;;;;;;414.33;18.80;;;2.70;99.90;;;;;;20901468;27;20161;-41
2024/02/23 18:01:15;;;;;;;3.15;1.98;;;2.60;99.90;;;;;;20933693;27;20177;-43
2024/02/23 18:11:19;;;;;;;3.10;2.10;;;2.10;99.90;;;;;;20943715;27;20176;-43
2024/02/23 18:21:22;;;;;;;3.10;1.95;;;1.60;99.90;;;;;;20940360;27;20127;-43
2024/02/23 18:31:24;;;;;;;3.00;2.05;;;1.40;99.90;;;;;;20892084;27;20657;-42
2024/02/23 18:41:25;;;;;;;3.53;1.73;;;1.10;99.90;;;;;;20935722;27;20177;-42
2024/02/23 18:51:31;;;;;;;1282.18;45.22;;;1.00;99.90;;;;;;20886288;27;20461;-42
2024/02/23 19:01:33;;;;;;;567.17;19.25;;;1.50;99.90;;;;;;20944339;27;20039;-42
2024/02/23 19:11:35;;;;;;;102.13;3.83;;;1.70;99.90;;;;;;20930201;27;20106;-41
2024/02/23 19:21:37;;;;;;;55.78;1.83;;;1.80;99.90;;;;;;20899424;27;20085;-41
2024/02/23 19:31:38;;;;;;;377.85;14.05;;;1.70;99.90;;;;;;20943036;27;20078;-41
2024/02/23 19:41:43;;;;;;;905.95;29.83;;;1.80;99.90;;;;;;20939352;27;20051;-41
2024/02/23 19:51:45;;;;;;;601.15;21.58;;;1.70;99.90;;;;;;20941707;27;20177;-41
2024/02/23 20:01:47;;;;;;;480.77;17.80;;;1.80;99.90;;;;;;20933460;27;20268;-40
2024/02/23 20:11:49;;;;;;;405.58;13.90;;;1.70;99.90;;;;;;20886895;27;20162;-45
2024/02/23 20:21:54;;;;;;;197.13;10.05;;;1.60;99.90;;;;;;20874592;27;20231;-42
2024/02/23 20:31:56;;;;;;;8.30;4.53;;;1.60;99.90;;;;;;20919155;27;20150;-41
2024/02/23 20:41:58;;;;;;;5.00;2.25;;;1.50;99.90;;;;;;20888237;28;21039;-42
2024/02/23 20:52:00;;;;;;;64.35;6.20;;;1.40;99.90;;;;;;20923109;28;20178;-44
2024/02/23 21:02:02;;;;;;;6.80;3.42;;;1.30;99.90;;;;;;20937972;28;20699;-43
2024/02/23 21:12:04;;;;;;;7.43;3.95;;;1.20;99.90;;;;;;20938994;28;20890;-40
2024/02/23 21:22:06;;;;;;;4.80;2.50;;;1.20;99.90;;;;;;20939304;27;20125;-42
2024/02/23 21:32:08;;;;;;;1.70;0.52;;;1.20;99.90;;;;;;20953601;27;20138;-42
2024/02/23 21:42:13;;;;;;;0.65;0.40;;;1.40;99.90;;;;;;20945466;27;20261;-41
2024/02/23 21:52:15;;;;;;;1.42;0.50;;;1.40;99.90;;;;;;20894578;27;20158;-40
2024/02/23 22:02:17;;;;;;;1.77;0.95;;;1.60;99.90;;;;;;20895021;27;20159;-44
2024/02/23 22:12:26;;;;;;;2.67;1.83;;;1.70;99.90;;;;;;20949070;27;20130;-40
2024/02/23 22:22:28;;;;;;;4.10;2.22;;;1.20;99.90;;;;;;20899945;27;20152;-43
2024/02/23 22:32:30;;;;;;;1.65;1.13;;;0.80;99.90;;;;;;20889327;27;20151;-40
2024/02/23 22:42:32;;;;;;;2.30;1.23;;;0.60;99.90;;;;;;20919166;27;20260;-39
2024/02/23 22:52:33;;;;;;;1.95;1.10;;;0.60;99.90;;;;;;20944834;27;20128;-40
2024/02/23 23:02:41;;;;;;;3.67;1.70;;;0.50;99.90;;;;;;20889709;27;20143;-39
2024/02/23 23:12:43;;;;;;;4.13;2.47;;;0.30;99.90;;;;;;20888184;27;20268;-40
2024/02/23 23:22:45;;;;;;;4.53;2.20;;;0.30;99.90;;;;;;20942846;27;21547;-39
2024/02/23 23:32:47;;;;;;;4.28;2.65;;;0.40;99.90;;;;;;20942737;27;20808;-39
2024/02/23 23:42:49;;;;;;;7.60;3.17;;;0.40;99.90;;;;;;20930623;27;20165;-39
2024/02/23 23:52:51;;;;;;;3.33;1.52;;;0.30;99.90;;;;;;20895507;27;20060;-39
